Kathmandu, Nepal
Current Conditions -  °F | °C
As of 1:50 AM on Saturday 25 Oct 2014 (Local Time) from VNKT Reporting Station
Few Clouds Few Clouds  
Wind Chill: 14°   Ceiling: Unl
Heat Index: 14°   Visibility: 4mi
Dew Point: 12°   Wind: 0mph
Humidity: 88%   Direction: NA
Pressure: 30.09"   Gusts: NA
Location:  27.71°N, 85.31°E
Report Text: VNKT 242050Z 00000KT 7000 FEW025 14/12 Q1019 NOSIG
Loading
Personal Weather Stations






























Interactive Weather Map New forecast layout! Learn more

10-Day Weather Forecast

Advertisements
Track Severe Weather on mobile